createdAt,value
2019-03-19T00:00:14.614Z,4.40
2019-03-19T00:02:43.036Z,5.35
2019-03-19T00:05:11.437Z,4.83
2019-03-19T00:07:39.890Z,5.28
2019-03-19T00:10:09.543Z,5.75
2019-03-19T00:12:37.983Z,5.95
2019-03-19T00:15:08.825Z,5.78
2019-03-19T00:17:37.264Z,5.78
2019-03-19T00:20:09.178Z,5.95
2019-03-19T00:22:37.622Z,5.90
2019-03-19T00:25:06.680Z,6.45
2019-03-19T00:27:35.195Z,6.35
2019-03-19T00:30:03.884Z,6.80
2019-03-19T00:32:32.314Z,6.53
2019-03-19T00:35:00.698Z,6.58
2019-03-19T00:37:29.162Z,6.78
2019-03-19T00:39:57.574Z,7.28
2019-03-19T00:42:26.039Z,7.15
2019-03-19T00:44:54.435Z,7.00
2019-03-19T00:47:22.835Z,7.05
2019-03-19T00:49:51.345Z,6.53
2019-03-19T00:52:19.837Z,6.78
2019-03-19T00:54:48.236Z,6.10
2019-03-19T00:57:16.703Z,6.60
2019-03-19T00:59:45.158Z,6.05
2019-03-19T01:02:13.630Z,6.20
2019-03-19T01:04:42.073Z,6.17
2019-03-19T01:07:10.469Z,5.50
2019-03-19T01:09:38.921Z,5.80
2019-03-19T01:12:07.322Z,6.62
2019-03-19T01:14:35.784Z,6.72
2019-03-19T01:17:04.252Z,7.00
2019-03-19T01:19:32.713Z,6.55
2019-03-19T01:22:01.150Z,6.22
2019-03-19T01:24:29.592Z,5.95
2019-03-19T01:26:57.982Z,6.55
2019-03-19T01:29:26.434Z,5.95
2019-03-19T01:31:54.858Z,6.17
2019-03-19T01:34:23.288Z,6.10
2019-03-19T01:36:51.704Z,6.53
2019-03-19T01:39:20.145Z,6.80
2019-03-19T01:41:48.560Z,6.67
2019-03-19T01:44:16.996Z,6.92
2019-03-19T01:46:45.412Z,6.33
2019-03-19T01:49:13.908Z,5.92
2019-03-19T01:51:42.325Z,5.62
2019-03-19T01:54:10.757Z,5.83
2019-03-19T01:56:39.174Z,5.30
2019-03-19T01:59:07.659Z,5.40
2019-03-19T02:01:36.084Z,4.50
2019-03-19T02:04:04.570Z,5.05
2019-03-19T02:06:33.001Z,4.60
2019-03-19T02:09:01.416Z,4.60
2019-03-19T02:11:29.848Z,4.03
2019-03-19T02:13:58.254Z,4.20
2019-03-19T02:16:26.750Z,4.35
2019-03-19T02:18:55.165Z,4.08
2019-03-19T02:21:23.661Z,4.30
2019-03-19T02:23:52.086Z,4.50
2019-03-19T02:26:20.517Z,5.08
2019-03-19T02:28:48.928Z,4.08
2019-03-19T02:31:17.358Z,4.47
2019-03-19T02:33:45.771Z,4.47
2019-03-19T02:36:14.199Z,4.10
2019-03-19T02:38:42.621Z,3.80
2019-03-19T02:41:11.073Z,3.83
2019-03-19T02:43:39.492Z,4.15
2019-03-19T02:46:07.930Z,4.47
2019-03-19T02:48:36.331Z,4.30
2019-03-19T02:51:04.971Z,4.75
2019-03-19T02:53:33.406Z,4.70
2019-03-19T02:56:01.866Z,4.85
2019-03-19T02:58:30.273Z,4.20
2019-03-19T03:00:58.683Z,4.00
2019-03-19T03:03:27.105Z,3.67
2019-03-19T03:05:55.517Z,4.05
2019-03-19T03:08:23.960Z,4.30
2019-03-19T03:10:52.379Z,4.58
2019-03-19T03:13:20.827Z,4.60
2019-03-19T03:15:49.243Z,4.70
2019-03-19T03:18:17.691Z,4.95
2019-03-19T03:20:46.189Z,5.45
2019-03-19T03:23:14.622Z,4.90
2019-03-19T03:25:43.029Z,5.80
2019-03-19T03:28:11.463Z,4.87
2019-03-19T03:30:39.874Z,4.72
2019-03-19T03:33:08.370Z,4.87
2019-03-19T03:35:36.791Z,4.67
2019-03-19T03:38:05.401Z,4.50
2019-03-19T03:40:33.818Z,4.58
2019-03-19T03:43:02.254Z,5.47
2019-03-19T03:45:30.689Z,4.97
2019-03-19T03:47:59.097Z,5.37
2019-03-19T03:50:27.532Z,5.78
2019-03-19T03:52:55.940Z,5.12
2019-03-19T03:55:24.370Z,5.05
2019-03-19T03:57:52.841Z,4.30
2019-03-19T04:00:23.196Z,4.75
2019-03-19T04:02:51.608Z,4.60
2019-03-19T04:05:20.174Z,4.92
2019-03-19T04:07:48.585Z,5.28
2019-03-19T04:10:17.789Z,4.85
2019-03-19T04:12:46.337Z,5.10
2019-03-19T04:15:16.569Z,4.20
2019-03-19T04:17:44.990Z,4.87
2019-03-19T04:20:14.363Z,4.42
2019-03-19T04:22:42.847Z,4.40
2019-03-19T04:25:11.657Z,4.80
2019-03-19T04:27:40.862Z,4.60
2019-03-19T04:30:14.583Z,4.35
2019-03-19T04:32:42.995Z,4.58
2019-03-19T04:35:11.737Z,4.40
2019-03-19T04:37:40.170Z,4.72
2019-03-19T04:40:12.604Z,5.05
2019-03-19T04:42:41.037Z,5.22
2019-03-19T04:45:11.749Z,5.03
2019-03-19T04:47:40.185Z,4.72
2019-03-19T04:50:13.181Z,8.68
2019-03-19T04:52:41.641Z,8.78
2019-03-19T04:55:14.172Z,9.93
2019-03-19T04:57:42.624Z,10.40
2019-03-19T05:00:15.258Z,9.18
2019-03-19T05:05:12.773Z,5.47
2019-03-19T05:07:41.282Z,4.42
2019-03-19T05:10:14.280Z,4.10
2019-03-19T05:12:42.894Z,4.20
2019-03-19T05:15:11.555Z,4.60
2019-03-19T05:17:39.981Z,4.60
2019-03-19T05:20:13.184Z,4.45
2019-03-19T05:22:41.632Z,4.40
2019-03-19T05:25:10.845Z,4.67
2019-03-19T05:27:39.373Z,4.28
2019-03-19T05:30:13.466Z,5.00
2019-03-19T05:32:41.901Z,5.55
2019-03-19T05:35:10.523Z,9.88
2019-03-19T05:37:39.006Z,6.92
2019-03-19T05:40:13.545Z,5.17
2019-03-19T05:42:42.040Z,5.55
2019-03-19T05:45:16.652Z,5.50
2019-03-19T05:47:45.269Z,5.83
2019-03-19T05:50:15.109Z,6.20
2019-03-19T05:52:43.547Z,5.62
2019-03-19T05:55:12.197Z,5.35
2019-03-19T05:57:48.817Z,5.90
2019-03-19T06:00:19.135Z,5.80
2019-03-19T06:02:47.573Z,6.30
2019-03-19T06:05:16.053Z,5.72
2019-03-19T06:07:44.466Z,7.00
2019-03-19T06:10:13.752Z,6.40
2019-03-19T06:12:42.296Z,6.10
2019-03-19T06:15:12.464Z,5.85
2019-03-19T06:17:40.882Z,6.00
2019-03-19T06:20:11.962Z,5.50
2019-03-19T06:22:40.371Z,5.53
2019-03-19T06:25:10.450Z,5.85
2019-03-19T06:27:38.851Z,5.30
2019-03-19T06:30:18.297Z,5.03
2019-03-19T06:32:46.786Z,5.25
2019-03-19T06:35:15.880Z,6.15
2019-03-19T06:37:44.522Z,6.20
2019-03-19T06:40:16.660Z,5.87
2019-03-19T06:42:45.144Z,6.17
2019-03-19T06:45:16.889Z,6.78
2019-03-19T06:47:45.311Z,6.70
2019-03-19T06:50:17.035Z,7.53
2019-03-19T06:52:45.518Z,7.07
2019-03-19T06:55:15.210Z,6.80
2019-03-19T06:57:43.630Z,6.92
2019-03-19T07:00:20.237Z,6.58
2019-03-19T07:02:48.831Z,6.50
2019-03-19T07:05:18.225Z,6.17
2019-03-19T07:07:46.739Z,5.72
2019-03-19T07:10:17.263Z,5.83
2019-03-19T07:12:45.722Z,5.83
2019-03-19T07:15:17.779Z,5.37
2019-03-19T07:17:46.681Z,6.90
2019-03-19T07:20:19.850Z,6.25
2019-03-19T07:22:48.350Z,6.55
2019-03-19T07:25:16.832Z,7.28
2019-03-19T07:27:45.277Z,8.23
2019-03-19T07:30:24.193Z,6.92
2019-03-19T07:32:52.629Z,6.25
2019-03-19T07:35:21.059Z,6.45
2019-03-19T07:37:49.554Z,6.62
2019-03-19T07:40:18.317Z,5.95
2019-03-19T07:42:46.888Z,6.70
2019-03-19T07:45:22.579Z,5.30
2019-03-19T07:47:51.072Z,4.92
2019-03-19T07:50:20.243Z,6.67
2019-03-19T07:52:48.810Z,7.62
2019-03-19T07:55:17.366Z,6.67
2019-03-19T07:57:45.877Z,7.20
2019-03-19T08:00:17.994Z,10.45
2019-03-19T08:02:46.665Z,7.65
2019-03-19T08:05:15.145Z,5.87
2019-03-19T08:07:43.649Z,6.20
2019-03-19T08:10:17.125Z,6.15
2019-03-19T08:12:45.559Z,6.08
2019-03-19T08:15:18.660Z,7.30
2019-03-19T08:17:47.163Z,12.15
2019-03-19T08:20:16.308Z,7.62
2019-03-19T08:22:44.879Z,7.05
2019-03-19T08:25:14.137Z,8.80
2019-03-19T08:27:42.657Z,7.78
2019-03-19T08:30:16.052Z,10.30
2019-03-19T08:32:44.526Z,7.87
2019-03-19T08:35:13.036Z,9.20
2019-03-19T08:37:41.514Z,8.68
2019-03-19T08:40:12.397Z,8.85
2019-03-19T08:42:40.824Z,11.80
2019-03-19T08:45:11.871Z,10.58
2019-03-19T08:47:40.290Z,19.52
2019-03-19T08:50:14.066Z,14.93
2019-03-19T08:52:42.554Z,13.30
2019-03-19T08:55:11.073Z,9.80
2019-03-19T08:57:39.554Z,12.55
2019-03-19T09:00:13.937Z,11.25
2019-03-19T09:02:42.374Z,10.58
2019-03-19T09:05:10.863Z,10.35
2019-03-19T09:07:39.279Z,11.97
2019-03-19T09:10:12.529Z,8.83
2019-03-19T09:12:40.945Z,7.72
2019-03-19T09:15:20.713Z,7.75
2019-03-19T09:17:49.199Z,7.22
2019-03-19T09:20:18.377Z,7.55
2019-03-19T09:22:46.792Z,10.10
2019-03-19T09:25:15.372Z,9.75
2019-03-19T09:27:43.857Z,7.78
2019-03-19T09:30:21.013Z,7.75
2019-03-19T09:32:49.457Z,7.22
2019-03-19T09:35:18.037Z,6.97
2019-03-19T09:37:57.919Z,7.20
2019-03-19T09:40:20.682Z,7.05
2019-03-19T09:42:49.173Z,8.03
2019-03-19T09:45:18.441Z,8.13
2019-03-19T09:47:47.200Z,7.92
2019-03-19T09:50:21.365Z,8.55
2019-03-19T09:52:49.861Z,8.53
2019-03-19T09:55:18.344Z,8.73
2019-03-19T09:57:46.789Z,7.42
2019-03-19T10:00:19.495Z,8.53
2019-03-19T10:02:48.063Z,7.10
2019-03-19T10:05:16.541Z,6.85
2019-03-19T10:07:45.128Z,6.90
2019-03-19T10:10:21.665Z,8.88
2019-03-19T10:12:50.217Z,7.20
2019-03-19T10:15:19.170Z,7.05
2019-03-19T10:17:47.734Z,6.75
2019-03-19T10:20:18.379Z,6.00
2019-03-19T10:22:47.014Z,5.97
2019-03-19T10:25:16.275Z,5.47
2019-03-19T10:27:44.718Z,5.92
2019-03-19T10:30:16.207Z,5.33
2019-03-19T10:32:44.632Z,5.20
2019-03-19T10:35:13.194Z,6.10
2019-03-19T10:37:41.609Z,5.80
2019-03-19T10:40:12.273Z,5.22
2019-03-19T10:42:40.692Z,5.45
2019-03-19T10:45:17.091Z,5.00
2019-03-19T10:47:45.584Z,5.30
2019-03-19T10:50:19.133Z,5.58
2019-03-19T10:52:47.639Z,4.87
2019-03-19T10:55:16.068Z,4.78
2019-03-19T10:57:44.549Z,5.83
2019-03-19T11:00:24.029Z,4.72
2019-03-19T11:02:52.928Z,6.17
2019-03-19T11:05:22.296Z,4.75
2019-03-19T11:07:50.766Z,3.80
2019-03-19T11:10:19.749Z,4.42
2019-03-19T11:12:48.150Z,5.58
2019-03-19T11:15:20.877Z,4.47
2019-03-19T11:17:49.307Z,4.30
2019-03-19T11:20:19.744Z,4.42
2019-03-19T11:22:48.588Z,3.65
2019-03-19T11:25:29.822Z,3.80
2019-03-19T11:27:58.369Z,4.67
2019-03-19T11:30:27.774Z,3.70
2019-03-19T11:32:56.171Z,4.62
2019-03-19T11:35:24.915Z,3.33
2019-03-19T11:37:53.438Z,3.27
2019-03-19T11:40:22.155Z,3.50
2019-03-19T11:42:51.323Z,3.30
2019-03-19T11:45:21.073Z,2.95
2019-03-19T11:47:49.586Z,3.65
2019-03-19T11:50:19.748Z,3.30
2019-03-19T11:52:48.254Z,2.55
2019-03-19T11:55:17.238Z,2.80
2019-03-19T11:57:45.722Z,2.98
2019-03-19T12:00:24.737Z,3.37
2019-03-19T12:02:53.155Z,3.00
2019-03-19T12:05:21.570Z,2.80
2019-03-19T12:07:50.000Z,3.37
2019-03-19T12:10:18.424Z,3.83
2019-03-19T12:12:46.858Z,2.90
2019-03-19T12:15:15.355Z,3.52
2019-03-19T12:17:43.799Z,2.52
2019-03-19T12:20:13.745Z,2.42
2019-03-19T12:22:42.272Z,3.27
2019-03-19T12:25:12.222Z,2.80
2019-03-19T12:27:40.730Z,2.80
2019-03-19T12:30:22.349Z,2.72
2019-03-19T12:32:47.431Z,2.80
2019-03-19T12:35:17.589Z,2.05
2019-03-19T12:37:46.095Z,4.75
2019-03-19T12:40:21.355Z,2.17
2019-03-19T12:42:49.935Z,2.60
2019-03-19T12:45:19.530Z,2.55
2019-03-19T12:47:48.087Z,5.03
2019-03-19T12:50:22.993Z,1.90
2019-03-19T12:52:51.510Z,5.28
2019-03-19T12:55:19.988Z,2.35
2019-03-19T12:57:48.558Z,5.87
2019-03-19T13:00:33.592Z,2.70
2019-03-19T13:02:54.057Z,5.80
2019-03-19T13:05:22.790Z,2.70
2019-03-19T13:07:51.483Z,9.75
2019-03-19T13:10:23.686Z,2.70
2019-03-19T13:12:52.294Z,3.92
2019-03-19T13:15:21.365Z,2.85
2019-03-19T13:17:49.818Z,2.10
2019-03-19T13:20:19.093Z,2.25
2019-03-19T13:22:47.584Z,2.55
2019-03-19T13:25:23.705Z,2.47
2019-03-19T13:27:52.156Z,2.12
2019-03-19T13:30:25.882Z,2.50
2019-03-19T13:32:54.305Z,2.22
2019-03-19T13:35:22.885Z,3.20
2019-03-19T13:37:51.302Z,2.22
2019-03-19T13:40:20.102Z,2.47
2019-03-19T13:42:48.856Z,2.27
2019-03-19T13:45:21.647Z,2.80
2019-03-19T13:47:50.934Z,2.72
2019-03-19T13:50:19.900Z,2.22
2019-03-19T13:52:48.388Z,2.30
2019-03-19T13:55:17.871Z,2.58
2019-03-19T13:57:46.357Z,2.02
2019-03-19T14:00:15.940Z,2.10
2019-03-19T14:02:44.422Z,2.05
2019-03-19T14:05:14.106Z,2.20
2019-03-19T14:07:42.669Z,1.87
2019-03-19T14:10:18.501Z,2.25
2019-03-19T14:12:47.102Z,2.67
2019-03-19T14:15:23.273Z,3.37
2019-03-19T14:17:51.693Z,3.40
2019-03-19T14:20:20.198Z,2.90
2019-03-19T14:22:48.708Z,2.72
2019-03-19T14:25:17.546Z,2.75
2019-03-19T14:27:45.973Z,2.40
2019-03-19T14:30:16.918Z,2.35
2019-03-19T14:32:45.491Z,2.47
2019-03-19T14:35:13.968Z,2.40
2019-03-19T14:37:42.503Z,2.85
2019-03-19T14:40:22.372Z,2.20
2019-03-19T14:42:50.799Z,2.77
2019-03-19T14:45:19.405Z,2.40
2019-03-19T14:47:47.916Z,2.05
2019-03-19T14:50:18.560Z,2.55
2019-03-19T14:52:47.101Z,2.08
2019-03-19T14:55:15.543Z,2.50
2019-03-19T14:57:44.003Z,2.80
2019-03-19T15:00:15.488Z,2.10
2019-03-19T15:02:44.090Z,2.37
2019-03-19T15:05:14.059Z,2.50
2019-03-19T15:07:42.583Z,1.87
2019-03-19T15:10:20.344Z,2.25
2019-03-19T15:12:48.769Z,2.55
2019-03-19T15:15:19.193Z,2.40
2019-03-19T15:17:47.643Z,2.45
2019-03-19T15:20:18.579Z,2.80
2019-03-19T15:22:47.158Z,3.27
2019-03-19T15:25:15.659Z,2.90
2019-03-19T15:27:44.156Z,2.90
2019-03-19T15:30:19.706Z,2.33
2019-03-19T15:32:48.228Z,2.90
2019-03-19T15:35:16.749Z,2.42
2019-03-19T15:37:45.262Z,2.60
2019-03-19T15:40:19.316Z,2.20
2019-03-19T15:42:47.872Z,2.65
2019-03-19T15:45:24.604Z,2.17
2019-03-19T15:47:53.018Z,2.00
2019-03-19T15:50:21.643Z,2.47
2019-03-19T15:52:50.072Z,1.90
2019-03-19T15:55:18.510Z,2.17
2019-03-19T15:57:46.929Z,1.90
2019-03-19T16:00:19.225Z,2.37
2019-03-19T16:02:47.643Z,2.20
2019-03-19T16:05:16.073Z,2.35
2019-03-19T16:07:44.588Z,3.12
2019-03-19T16:10:14.134Z,2.08
2019-03-19T16:12:42.691Z,2.10
2019-03-19T16:15:16.036Z,2.15
2019-03-19T16:17:44.511Z,1.90
2019-03-19T16:20:16.690Z,2.00
2019-03-19T16:22:45.105Z,1.75
2019-03-19T16:25:13.866Z,1.50
2019-03-19T16:27:42.499Z,2.55
2019-03-19T16:30:13.841Z,2.20
2019-03-19T16:32:42.452Z,2.12
2019-03-19T16:35:11.547Z,2.80
2019-03-19T16:37:40.061Z,2.70
2019-03-19T16:40:11.559Z,2.20
2019-03-19T16:42:40.024Z,2.10
2019-03-19T16:45:10.533Z,2.10
2019-03-19T16:47:39.070Z,2.30
2019-03-19T16:50:16.563Z,2.33
2019-03-19T16:52:45.022Z,2.20
2019-03-19T16:55:15.334Z,2.47
2019-03-19T16:57:43.819Z,2.10
2019-03-19T17:00:22.554Z,2.67
2019-03-19T17:02:51.001Z,3.27
2019-03-19T17:05:19.511Z,3.27
2019-03-19T17:07:48.008Z,3.15
2019-03-19T17:10:24.008Z,4.10
2019-03-19T17:12:52.533Z,2.77
2019-03-19T17:15:20.938Z,2.98
2019-03-19T17:17:49.385Z,3.80
2019-03-19T17:20:18.733Z,3.50
2019-03-19T17:22:47.361Z,3.75
2019-03-19T17:25:26.657Z,2.80
2019-03-19T17:27:55.183Z,4.28
2019-03-19T17:30:28.316Z,3.77
2019-03-19T17:32:56.848Z,4.10
2019-03-19T17:35:25.261Z,4.30
2019-03-19T17:37:53.721Z,3.30
2019-03-19T17:40:22.180Z,4.12
2019-03-19T17:42:50.612Z,3.22
2019-03-19T17:45:19.172Z,2.50
2019-03-19T17:47:47.665Z,2.08
2019-03-19T17:50:19.162Z,2.20
2019-03-19T17:52:49.668Z,1.95
2019-03-19T17:55:18.301Z,1.82
2019-03-19T17:57:46.723Z,2.00
2019-03-19T18:00:19.310Z,1.82
2019-03-19T18:02:47.718Z,1.98
2019-03-19T18:05:16.164Z,1.80
2019-03-19T18:07:44.596Z,2.05
2019-03-19T18:10:13.771Z,2.00
2019-03-19T18:12:42.341Z,1.75
2019-03-19T18:15:15.665Z,1.62
2019-03-19T18:17:44.180Z,1.70
2019-03-19T18:20:16.011Z,1.45
2019-03-19T18:22:44.496Z,1.90
2019-03-19T18:25:14.478Z,1.70
2019-03-19T18:27:42.957Z,1.67
2019-03-19T18:30:19.090Z,4.22
2019-03-19T18:32:47.596Z,4.03
2019-03-19T18:35:16.042Z,2.27
2019-03-19T18:37:44.455Z,2.12
2019-03-19T18:40:17.592Z,1.90
2019-03-19T18:42:46.081Z,1.95
2019-03-19T18:45:15.878Z,2.40
2019-03-19T18:47:44.369Z,14.63
2019-03-19T18:50:22.173Z,11.22
2019-03-19T18:52:50.655Z,18.62
2019-03-19T18:55:19.166Z,21.48
2019-03-19T18:57:47.625Z,18.37
2019-03-19T19:00:18.066Z,14.15
2019-03-19T19:02:50.136Z,9.85
2019-03-19T19:05:17.751Z,4.95
2019-03-19T19:07:46.201Z,4.22
2019-03-19T19:10:15.657Z,4.00
2019-03-19T19:12:44.118Z,3.83
2019-03-19T19:15:21.423Z,5.00
2019-03-19T19:17:49.865Z,3.33
2019-03-19T19:20:18.829Z,3.58
2019-03-19T19:22:47.418Z,4.37
2019-03-19T19:25:18.247Z,4.67
2019-03-19T19:27:46.717Z,5.30
2019-03-19T19:30:22.703Z,6.80
2019-03-19T19:33:00.951Z,5.85
2019-03-19T19:35:21.396Z,6.25
2019-03-19T19:37:49.896Z,5.72
2019-03-19T19:40:18.585Z,4.70
2019-03-19T19:42:47.110Z,4.95
2019-03-19T19:45:19.046Z,5.65
2019-03-19T19:47:47.617Z,5.50
2019-03-19T19:50:20.922Z,5.40
2019-03-19T19:52:49.483Z,4.95
2019-03-19T19:55:17.985Z,5.60
2019-03-19T19:57:46.555Z,5.72
2019-03-19T20:00:20.111Z,4.87
2019-03-19T20:02:48.819Z,5.28
2019-03-19T20:05:17.425Z,5.85
2019-03-19T20:07:46.005Z,6.15
2019-03-19T20:10:18.942Z,6.25
2019-03-19T20:12:47.472Z,5.85
2019-03-19T20:15:15.974Z,6.28
2019-03-19T20:17:44.491Z,6.45
2019-03-19T20:20:15.126Z,6.78
2019-03-19T20:22:44.827Z,6.40
2019-03-19T20:25:13.723Z,5.72
2019-03-19T20:27:42.143Z,6.03
2019-03-19T20:30:19.133Z,6.03
2019-03-19T20:32:47.556Z,6.12
2019-03-19T20:35:16.035Z,6.53
2019-03-19T20:37:44.539Z,9.43
2019-03-19T20:40:14.408Z,7.03
2019-03-19T20:42:42.931Z,7.08
2019-03-19T20:45:17.337Z,6.83
2019-03-19T20:47:45.774Z,5.60
2019-03-19T20:50:16.770Z,6.30
2019-03-19T20:52:45.182Z,5.62
2019-03-19T20:55:13.739Z,5.70
2019-03-19T20:57:42.185Z,6.67
2019-03-19T21:00:17.727Z,5.67
2019-03-19T21:02:46.235Z,6.35
2019-03-19T21:05:14.674Z,6.42
2019-03-19T21:07:43.115Z,7.50
2019-03-19T21:10:14.808Z,8.05
2019-03-19T21:12:43.304Z,8.00
2019-03-19T21:15:25.075Z,7.28
2019-03-19T21:17:53.567Z,7.10
2019-03-19T21:20:22.064Z,7.28
2019-03-19T21:22:50.530Z,7.05
2019-03-19T21:25:19.100Z,7.78
2019-03-19T21:27:47.552Z,11.25
2019-03-19T21:30:17.995Z,12.10
2019-03-19T21:32:46.557Z,10.00
2019-03-19T21:35:16.284Z,7.12
2019-03-19T21:37:44.744Z,8.10
2019-03-19T21:40:14.704Z,7.17
2019-03-19T21:42:43.132Z,5.47
2019-03-19T21:45:17.583Z,6.25
2019-03-19T21:47:46.152Z,5.28
2019-03-19T21:50:18.612Z,6.30
2019-03-19T21:52:47.193Z,5.87
2019-03-19T21:55:15.697Z,6.42
2019-03-19T21:57:44.213Z,6.65
2019-03-19T22:00:17.776Z,6.60
2019-03-19T22:02:46.267Z,6.53
2019-03-19T22:05:14.794Z,6.80
2019-03-19T22:07:43.207Z,6.95
2019-03-19T22:10:13.289Z,6.95
2019-03-19T22:12:41.787Z,7.22
2019-03-19T22:15:15.242Z,6.45
2019-03-19T22:17:43.641Z,6.05
2019-03-19T22:20:13.795Z,5.65
2019-03-19T22:22:42.371Z,5.50
2019-03-19T22:25:12.761Z,4.95
2019-03-19T22:27:41.293Z,5.65
2019-03-19T22:30:15.260Z,5.90
2019-03-19T22:32:43.733Z,6.70
2019-03-19T22:35:12.839Z,6.35
2019-03-19T22:37:41.288Z,6.37
2019-03-19T22:40:12.329Z,5.95
2019-03-19T22:42:40.753Z,6.35
2019-03-19T22:45:17.788Z,6.92
2019-03-19T22:47:46.337Z,6.33
2019-03-19T22:50:18.409Z,14.50
2019-03-19T22:52:47.071Z,9.18
2019-03-19T22:55:15.953Z,19.77
2019-03-19T22:57:44.443Z,7.72
2019-03-19T23:00:31.420Z,6.45
2019-03-19T23:02:59.840Z,6.40
2019-03-19T23:05:28.274Z,6.22
2019-03-19T23:07:56.705Z,10.48
2019-03-19T23:10:25.121Z,8.23
2019-03-19T23:12:53.641Z,6.45
2019-03-19T23:15:22.213Z,5.90
2019-03-19T23:17:50.662Z,5.33
2019-03-19T23:20:19.219Z,5.97
2019-03-19T23:22:47.833Z,6.78
2019-03-19T23:25:16.479Z,5.80
2019-03-19T23:27:44.922Z,6.62
2019-03-19T23:30:18.205Z,5.97
2019-03-19T23:32:47.214Z,6.05
2019-03-19T23:35:15.703Z,6.03
2019-03-19T23:37:44.129Z,5.55
2019-03-19T23:40:14.858Z,5.83
2019-03-19T23:42:43.354Z,5.65
2019-03-19T23:45:12.804Z,5.90
2019-03-19T23:47:41.389Z,6.00
2019-03-19T23:50:14.762Z,5.22
2019-03-19T23:52:43.333Z,4.37
2019-03-19T23:55:11.880Z,4.55
2019-03-19T23:57:40.383Z,4.92
